Список аэропортов
Фактическая погода:

09 декабря, 17:50
Температура: +9°C (+5.6*)
Ветер: сев.-западный 7 м/с
Давление: *763 мм
не опр.
Время (МСК)Темп. СВетерВлажностьДавлениеОблачностьОсадки
15:00+9СЗ, 11 м/с56%1012 гПаясно
16:00+9СЗ, 10 м/с54%1014 гПаясно
17:00+9СЗ, 9 м/с52%1016 гПаясно
18:00+8СЗ, 7 м/с54%1017 гПаясно
19:00+8СЗ, 6 м/с59%1018 гПаясно
20:00+7СЗ, 5 м/с64%1020 гПаясно
21:00+6СЗ, 4 м/с69%1021 гПаясно
22:00+4З, 3 м/с78%1022 гПаясно
23:00+3З, 2 м/с88%1023 гПаясно
10 декабря
00:00+2З, 2 м/с91%1023 гПаясно
01:00+1ЮЗ, 2 м/с96%1023 гПаясно
02:00+1ЮЗ, 2 м/с98%1024 гПаясно
03:000ЮЗ, 1 м/с99%1024 гПамалооблачно
04:000Ю, 2 м/с99%1023 гПаоблачно
05:000Ю, 2 м/с99%1023 гПаоблачно
06:000ЮВ, 2 м/с99%1022 гПаоблачно
07:000Ю, 3 м/с97%1022 гПаоблачно
08:00+1Ю, 3 м/с98%1021 гПаоблачно
09:00+3Ю, 4 м/с95%1019 гПаоблачно
10:00+5Ю, 6 м/с88%1017 гПаоблачно
11:00+7Ю, 7 м/с86%1016 гПаоблачносл. дождь
12:00+8Ю, 8 м/с83%1015 гПаоблачнодождь
13:00+9Ю, 10 м/с83%1013 гПаоблачнодождь
14:00+9Ю, 11 м/с85%1012 гПаоблачнодождь
15:00+9Ю, 11 м/с85%1010 гПаоблачносл. дождь
16:00+10Ю, 11 м/с82%1009 гПаоблачносл. дождь
17:00+10Ю, 11 м/с88%1007 гПаоблачно
18:00+11Ю, 13 м/с86%1005 гПаоблачносл. дождь
19:00+11Ю, 13 м/с88%1003 гПаоблачнодождь
20:00+11Ю, 13 м/с92%1002 гПаоблачнодождь
21:00+12Ю, 14 м/с93%1000 гПаоблачнодождь
22:00+12Ю, 13 м/с92%999 гПаоблачнодождь
23:00+13ЮЗ, 14 м/с90%998 гПаоблачнодождь
11 декабря
00:00+9З, 9 м/с75%1001 гПаоблачнодождь
01:00+9З, 9 м/с72%1002 гПаоблачно
02:00+9З, 9 м/с71%1003 гПаоблачно
03:00+8ЮЗ, 7 м/с71%1004 гПаясно
04:00+7ЮЗ, 7 м/с73%1005 гПамалооблачно
05:00+7ЮЗ, 8 м/с74%1005 гПаясно
06:00+7ЮЗ, 7 м/с77%1005 гПаясно
07:00+6ЮЗ, 7 м/с79%1005 гПаясно
08:00+6ЮЗ, 6 м/с80%1006 гПаясно
09:00+6ЮЗ, 6 м/с82%1006 гПамалооблачно
10:00+6ЮЗ, 5 м/с85%1006 гПаясно
11:00+5ЮЗ, 4 м/с89%1006 гПаясно
12:00+5ЮЗ, 5 м/с90%1006 гПаоблачно
13:00+6ЮЗ, 6 м/с83%1006 гПаоблачно
14:00+7ЮЗ, 6 м/с77%1005 гПаоблачно
15:00+8ЮЗ, 6 м/с72%1005 гПас прояснениями